Terminal Aerodrome Forecast
Issued by NWS Charleston, SC

Home | Current Version | Previous Version | Text Only | Print | Product List | Glossary On
Versions: 1 2 3 4 5 6 7 8 9 10 11 12 13 14 15 16 17 18
557
FTUS42 KCHS 200524
TAFCHS
TAF
KCHS 200524Z 2006/2106 VRB02KT P6SM BKN250
     FM201000 20003KT P6SM SCT015 BKN035
     FM201430 22009KT P6SM BKN035
     FM201800 23012G17KT P6SM BKN040
     FM202300 21005KT P6SM SCT050 BKN250=

USA.gov is the U.S. government's official web portal to all federal, state and local government web resources and services.